EZY39PC EGPH-EGGW
Flight info
| Callsign | EZY39PC |
|---|---|
| Flight time | 0h 52m |
| Altitude | 33000 |
| Route | GOSAM P600 FENIK L612 ELBUS UL612 LISTO |
| Aircraft | A320/M-SDE3FGHIRWY/LB1 |
Departure
| Time | 2026-04-21 13:09 |
|---|---|
| Airport | Edinburgh Airport (EGPH) |
Arrival
| Time | 2026-04-21 14:01 |
|---|---|
| Airport | London Luton Airport (EGGW) |
| Time | Latitude | Longitude | Altitude | Speed | Heading |
|---|---|---|---|---|---|
| 2026-04-21 12:41 | 55.94848 | -3.35872 | 117 ft | 0 kts | 208° |
| 2026-04-21 12:58 | 55.94850 | -3.35870 | 116 ft | 2 kts | 209° |
| 2026-04-21 12:58 | 55.94872 | -3.35845 | 112 ft | 4 kts | 217° |
| 2026-04-21 12:59 | 55.94892 | -3.35814 | 113 ft | 4 kts | 233° |
| 2026-04-21 12:59 | 55.94903 | -3.35774 | 113 ft | 4 kts | 274° |
| 2026-04-21 12:59 | 55.94902 | -3.35755 | 114 ft | 0 kts | 298° |
| 2026-04-21 13:02 | 55.94934 | -3.35845 | 115 ft | 12 kts | 319° |
| 2026-04-21 13:03 | 55.95020 | -3.35821 | 114 ft | 12 kts | 30° |
| 2026-04-21 13:03 | 55.95051 | -3.35847 | 114 ft | 8 kts | 300° |
| 2026-04-21 13:03 | 55.95088 | -3.35981 | 113 ft | 15 kts | 296° |
| 2026-04-21 13:03 | 55.95124 | -3.36159 | 115 ft | 16 kts | 285° |
| 2026-04-21 13:04 | 55.95109 | -3.36357 | 112 ft | 18 kts | 239° |
| 2026-04-21 13:04 | 55.95038 | -3.36566 | 114 ft | 21 kts | 241° |
| 2026-04-21 13:04 | 55.94967 | -3.36776 | 113 ft | 19 kts | 238° |
| 2026-04-21 13:04 | 55.94900 | -3.36969 | 114 ft | 18 kts | 238° |
| 2026-04-21 13:05 | 55.94840 | -3.37149 | 115 ft | 16 kts | 240° |
| 2026-04-21 13:05 | 55.94784 | -3.37313 | 113 ft | 15 kts | 239° |
| 2026-04-21 13:05 | 55.94747 | -3.37424 | 111 ft | 18 kts | 238° |
| 2026-04-21 13:05 | 55.94665 | -3.37665 | 113 ft | 27 kts | 239° |
| 2026-04-21 13:06 | 55.94557 | -3.37988 | 113 ft | 32 kts | 239° |
| 2026-04-21 13:06 | 55.94414 | -3.38404 | 113 ft | 28 kts | 239° |
| 2026-04-21 13:06 | 55.94322 | -3.38679 | 115 ft | 22 kts | 238° |
| 2026-04-21 13:06 | 55.94276 | -3.38809 | 114 ft | 12 kts | 244° |
| 2026-04-21 13:07 | 55.94309 | -3.38892 | 115 ft | 10 kts | 330° |
| 2026-04-21 13:07 | 55.94392 | -3.38974 | 114 ft | 14 kts | 343° |
| 2026-04-21 13:07 | 55.94445 | -3.38881 | 114 ft | 6 kts | 61° |
| 2026-04-21 13:07 | 55.94450 | -3.38867 | 114 ft | 0 kts | 61° |
| 2026-04-21 13:08 | 55.94451 | -3.38864 | 114 ft | 1 kts | 61° |
| 2026-04-21 13:08 | 55.94498 | -3.38726 | 113 ft | 40 kts | 58° |
| 2026-04-21 13:08 | 55.94766 | -3.37940 | 115 ft | 105 kts | 59° |
| 2026-04-21 13:08 | 55.95239 | -3.36549 | 140 ft | 153 kts | 59° |
| 2026-04-21 13:09 | 55.95801 | -3.34910 | 844 ft | 154 kts | 59° |
| 2026-04-21 13:09 | 55.96517 | -3.33474 | 1536 ft | 162 kts | 44° |
| 2026-04-21 13:09 | 55.97412 | -3.32040 | 1884 ft | 184 kts | 44° |
| 2026-04-21 13:09 | 55.98414 | -3.30425 | 2254 ft | 209 kts | 45° |
| 2026-04-21 13:10 | 55.99617 | -3.28652 | 2751 ft | 235 kts | 32° |
| 2026-04-21 13:10 | 56.01250 | -3.28129 | 3491 ft | 256 kts | 355° |
| 2026-04-21 13:10 | 56.02884 | -3.29552 | 4342 ft | 273 kts | 318° |
| 2026-04-21 13:10 | 56.03846 | -3.32523 | 5219 ft | 284 kts | 283° |
| 2026-04-21 13:11 | 56.03845 | -3.36080 | 5811 ft | 290 kts | 257° |
| 2026-04-21 13:11 | 56.03278 | -3.39526 | 5974 ft | 288 kts | 247° |
| 2026-04-21 13:11 | 56.02527 | -3.42855 | 6003 ft | 289 kts | 244° |
| 2026-04-21 13:11 | 56.01779 | -3.46193 | 6007 ft | 289 kts | 246° |
| 2026-04-21 13:12 | 56.01111 | -3.49525 | 6009 ft | 289 kts | 249° |
| 2026-04-21 13:12 | 56.00503 | -3.52982 | 6006 ft | 288 kts | 251° |
| 2026-04-21 13:12 | 55.99963 | -3.56401 | 6007 ft | 290 kts | 252° |
| 2026-04-21 13:12 | 55.99450 | -3.59880 | 6008 ft | 290 kts | 253° |
| 2026-04-21 13:13 | 55.98951 | -3.63373 | 6009 ft | 291 kts | 253° |
| 2026-04-21 13:13 | 55.98455 | -3.66868 | 6014 ft | 289 kts | 253° |
| 2026-04-21 13:13 | 55.97960 | -3.70352 | 6011 ft | 289 kts | 254° |
| 2026-04-21 13:13 | 55.97466 | -3.73826 | 6011 ft | 288 kts | 254° |
| 2026-04-21 13:14 | 55.96968 | -3.77304 | 6002 ft | 290 kts | 253° |
| 2026-04-21 13:14 | 55.96466 | -3.80800 | 6003 ft | 290 kts | 253° |
| 2026-04-21 13:14 | 55.95962 | -3.84293 | 5999 ft | 290 kts | 253° |
| 2026-04-21 13:14 | 55.95460 | -3.87763 | 5997 ft | 288 kts | 253° |
| 2026-04-21 13:15 | 55.94961 | -3.91195 | 6000 ft | 289 kts | 253° |
| 2026-04-21 13:15 | 55.94453 | -3.94680 | 6218 ft | 292 kts | 253° |
| 2026-04-21 13:15 | 55.93865 | -3.98137 | 7161 ft | 291 kts | 244° |
| 2026-04-21 13:15 | 55.92927 | -4.01320 | 8021 ft | 290 kts | 231° |
| 2026-04-21 13:16 | 55.91647 | -4.04091 | 8876 ft | 288 kts | 220° |
| 2026-04-21 13:16 | 55.90096 | -4.06329 | 9760 ft | 286 kts | 209° |
| 2026-04-21 13:16 | 55.88441 | -4.08338 | 10621 ft | 289 kts | 209° |
| 2026-04-21 13:16 | 55.86726 | -4.10423 | 11005 ft | 310 kts | 210° |
| 2026-04-21 13:17 | 55.84876 | -4.12671 | 11284 ft | 331 kts | 210° |
| 2026-04-21 13:17 | 55.82947 | -4.15020 | 11903 ft | 339 kts | 210° |
| 2026-04-21 13:17 | 55.80985 | -4.17421 | 12623 ft | 344 kts | 210° |
| 2026-04-21 13:17 | 55.78999 | -4.19858 | 13366 ft | 348 kts | 210° |
| 2026-04-21 13:18 | 55.76997 | -4.22322 | 14079 ft | 352 kts | 210° |
| 2026-04-21 13:18 | 55.74897 | -4.24442 | 14710 ft | 351 kts | 199° |
| 2026-04-21 13:18 | 55.72566 | -4.25673 | 15335 ft | 349 kts | 185° |
| 2026-04-21 13:18 | 55.70160 | -4.25892 | 15980 ft | 346 kts | 172° |
| 2026-04-21 13:19 | 55.67806 | -4.25112 | 16625 ft | 344 kts | 159° |
| 2026-04-21 13:19 | 55.65599 | -4.23471 | 17271 ft | 344 kts | 151° |
| 2026-04-21 13:19 | 55.63468 | -4.21518 | 17908 ft | 346 kts | 148° |
| 2026-04-21 13:19 | 55.61356 | -4.19434 | 18543 ft | 349 kts | 147° |
| 2026-04-21 13:20 | 55.59241 | -4.17290 | 19112 ft | 352 kts | 147° |
| 2026-04-21 13:20 | 55.57111 | -4.15130 | 19647 ft | 354 kts | 147° |
| 2026-04-21 13:20 | 55.54957 | -4.12969 | 20168 ft | 357 kts | 147° |
| 2026-04-21 13:20 | 55.52780 | -4.10813 | 20685 ft | 361 kts | 148° |
| 2026-04-21 13:21 | 55.50577 | -4.08655 | 21199 ft | 364 kts | 148° |
| 2026-04-21 13:21 | 55.48353 | -4.06491 | 21698 ft | 367 kts | 148° |
| 2026-04-21 13:21 | 55.46109 | -4.04318 | 22194 ft | 370 kts | 148° |
| 2026-04-21 13:21 | 55.43842 | -4.02122 | 22727 ft | 372 kts | 148° |
| 2026-04-21 13:22 | 55.41592 | -3.99949 | 23222 ft | 374 kts | 148° |
| 2026-04-21 13:22 | 55.39299 | -3.97739 | 23699 ft | 377 kts | 148° |
| 2026-04-21 13:22 | 55.36992 | -3.95512 | 24161 ft | 380 kts | 148° |
| 2026-04-21 13:22 | 55.34668 | -3.93267 | 24559 ft | 382 kts | 148° |
| 2026-04-21 13:23 | 55.32330 | -3.91007 | 24936 ft | 385 kts | 148° |
| 2026-04-21 13:23 | 55.29972 | -3.88730 | 25314 ft | 388 kts | 149° |
| 2026-04-21 13:23 | 55.27599 | -3.86446 | 25686 ft | 391 kts | 149° |
| 2026-04-21 13:23 | 55.25204 | -3.84144 | 26011 ft | 394 kts | 149° |
| 2026-04-21 13:24 | 55.22787 | -3.81827 | 26351 ft | 398 kts | 149° |
| 2026-04-21 13:24 | 55.20338 | -3.79484 | 26709 ft | 401 kts | 150° |
| 2026-04-21 13:24 | 55.17887 | -3.77140 | 27126 ft | 401 kts | 150° |
| 2026-04-21 13:24 | 55.15426 | -3.74787 | 27508 ft | 403 kts | 150° |
| 2026-04-21 13:25 | 55.12957 | -3.72428 | 27801 ft | 407 kts | 150° |
| 2026-04-21 13:25 | 55.10455 | -3.70048 | 28087 ft | 411 kts | 150° |
| 2026-04-21 13:25 | 55.07939 | -3.67663 | 28468 ft | 411 kts | 150° |
| 2026-04-21 13:25 | 55.05424 | -3.65285 | 28890 ft | 413 kts | 150° |
| 2026-04-21 13:26 | 55.02922 | -3.62922 | 29213 ft | 414 kts | 150° |
| 2026-04-21 13:26 | 55.00389 | -3.60525 | 29567 ft | 415 kts | 151° |
| 2026-04-21 13:26 | 54.97841 | -3.58116 | 29920 ft | 416 kts | 151° |
| 2026-04-21 13:26 | 54.95290 | -3.55709 | 30275 ft | 418 kts | 153° |
| 2026-04-21 13:27 | 54.92707 | -3.53274 | 30423 ft | 425 kts | 153° |
| 2026-04-21 13:27 | 54.90090 | -3.50804 | 30577 ft | 431 kts | 153° |
| 2026-04-21 13:27 | 54.87430 | -3.48304 | 30686 ft | 437 kts | 154° |
| 2026-04-21 13:27 | 54.84736 | -3.45783 | 30798 ft | 443 kts | 154° |
| 2026-04-21 13:28 | 54.82003 | -3.43227 | 30930 ft | 448 kts | 153° |
| 2026-04-21 13:28 | 54.79277 | -3.40677 | 31073 ft | 452 kts | 153° |
| 2026-04-21 13:28 | 54.76489 | -3.38075 | 31292 ft | 454 kts | 153° |
| 2026-04-21 13:28 | 54.73699 | -3.35471 | 31521 ft | 456 kts | 153° |
| 2026-04-21 13:29 | 54.70878 | -3.32922 | 31798 ft | 457 kts | 156° |
| 2026-04-21 13:29 | 54.67999 | -3.30569 | 31947 ft | 460 kts | 158° |
| 2026-04-21 13:29 | 54.65046 | -3.28357 | 32129 ft | 462 kts | 159° |
| 2026-04-21 13:29 | 54.62067 | -3.26233 | 32436 ft | 463 kts | 160° |
| 2026-04-21 13:30 | 54.59083 | -3.24130 | 32735 ft | 463 kts | 160° |
| 2026-04-21 13:30 | 54.56139 | -3.22029 | 33051 ft | 463 kts | 161° |
| 2026-04-21 13:30 | 54.53167 | -3.19866 | 33318 ft | 464 kts | 158° |
| 2026-04-21 13:30 | 54.50192 | -3.17662 | 33440 ft | 464 kts | 159° |
| 2026-04-21 13:31 | 54.44335 | -3.13253 | 33451 ft | 455 kts | 158° |
| 2026-04-21 13:31 | 54.38526 | -3.08899 | 33444 ft | 456 kts | 159° |
| 2026-04-21 13:32 | 54.32709 | -3.04598 | 33439 ft | 455 kts | 159° |
| 2026-04-21 13:32 | 54.26902 | -3.00329 | 33439 ft | 457 kts | 159° |
| 2026-04-21 13:33 | 54.21060 | -2.96058 | 33445 ft | 456 kts | 159° |
| 2026-04-21 13:33 | 54.15225 | -2.91792 | 33419 ft | 456 kts | 159° |
| 2026-04-21 13:34 | 54.09393 | -2.87523 | 33408 ft | 456 kts | 159° |
| 2026-04-21 13:34 | 54.03564 | -2.83268 | 33402 ft | 456 kts | 159° |
| 2026-04-21 13:35 | 53.97722 | -2.79028 | 33397 ft | 456 kts | 160° |
| 2026-04-21 13:35 | 53.91877 | -2.74813 | 33389 ft | 457 kts | 160° |
| 2026-04-21 13:36 | 53.86009 | -2.70591 | 33384 ft | 458 kts | 160° |
| 2026-04-21 13:36 | 53.80139 | -2.66356 | 33385 ft | 458 kts | 160° |
| 2026-04-21 13:37 | 53.74294 | -2.62167 | 33384 ft | 458 kts | 160° |
| 2026-04-21 13:37 | 53.68397 | -2.57963 | 33375 ft | 459 kts | 160° |
| 2026-04-21 13:38 | 53.62531 | -2.53791 | 33373 ft | 461 kts | 160° |
| 2026-04-21 13:38 | 53.56621 | -2.49570 | 33377 ft | 461 kts | 160° |
| 2026-04-21 13:39 | 53.50690 | -2.45368 | 33383 ft | 462 kts | 160° |
| 2026-04-21 13:39 | 53.44757 | -2.41197 | 33386 ft | 462 kts | 160° |
| 2026-04-21 13:40 | 53.38826 | -2.37016 | 33397 ft | 463 kts | 160° |
| 2026-04-21 13:40 | 53.32885 | -2.32834 | 33395 ft | 463 kts | 160° |
| 2026-04-21 13:41 | 53.26949 | -2.28690 | 33392 ft | 462 kts | 160° |
| 2026-04-21 13:41 | 53.21003 | -2.24555 | 33372 ft | 463 kts | 161° |
| 2026-04-21 13:42 | 53.15107 | -2.20307 | 33355 ft | 467 kts | 155° |
| 2026-04-21 13:42 | 53.09699 | -2.14223 | 33358 ft | 471 kts | 146° |
| 2026-04-21 13:43 | 53.04405 | -2.07778 | 33360 ft | 472 kts | 146° |
| 2026-04-21 13:43 | 52.99088 | -2.01335 | 33368 ft | 472 kts | 146° |
| 2026-04-21 13:44 | 52.93756 | -1.94879 | 33105 ft | 477 kts | 146° |
| 2026-04-21 13:44 | 52.91062 | -1.91634 | 32830 ft | 479 kts | 146° |
| 2026-04-21 13:44 | 52.88373 | -1.88402 | 32216 ft | 477 kts | 147° |
| 2026-04-21 13:45 | 52.85689 | -1.85177 | 31601 ft | 476 kts | 147° |
| 2026-04-21 13:45 | 52.83016 | -1.81967 | 30974 ft | 475 kts | 147° |
| 2026-04-21 13:45 | 52.80343 | -1.78757 | 30353 ft | 474 kts | 147° |
| 2026-04-21 13:45 | 52.77711 | -1.75601 | 29703 ft | 472 kts | 147° |
| 2026-04-21 13:46 | 52.75050 | -1.72465 | 29086 ft | 467 kts | 150° |
| 2026-04-21 13:46 | 52.72251 | -1.69855 | 28504 ft | 459 kts | 156° |
| 2026-04-21 13:46 | 52.69429 | -1.67422 | 27959 ft | 455 kts | 156° |
| 2026-04-21 13:46 | 52.66631 | -1.65018 | 27411 ft | 452 kts | 155° |
| 2026-04-21 13:47 | 52.63851 | -1.62633 | 26879 ft | 447 kts | 155° |
| 2026-04-21 13:47 | 52.61104 | -1.60279 | 26357 ft | 443 kts | 155° |
| 2026-04-21 13:47 | 52.58379 | -1.57950 | 25855 ft | 439 kts | 154° |
| 2026-04-21 13:47 | 52.55683 | -1.55646 | 25361 ft | 435 kts | 154° |
| 2026-04-21 13:48 | 52.53013 | -1.53363 | 24873 ft | 430 kts | 154° |
| 2026-04-21 13:48 | 52.50370 | -1.51102 | 24383 ft | 426 kts | 154° |
| 2026-04-21 13:48 | 52.47748 | -1.48864 | 23996 ft | 423 kts | 153° |
| 2026-04-21 13:48 | 52.45148 | -1.46643 | 23439 ft | 418 kts | 153° |
| 2026-04-21 13:49 | 52.42577 | -1.44456 | 22930 ft | 412 kts | 153° |
| 2026-04-21 13:49 | 52.40044 | -1.42308 | 22468 ft | 407 kts | 153° |
| 2026-04-21 13:49 | 52.37542 | -1.40190 | 21984 ft | 403 kts | 152° |
| 2026-04-21 13:49 | 52.35097 | -1.38123 | 21501 ft | 399 kts | 152° |
| 2026-04-21 13:50 | 52.32648 | -1.36055 | 21001 ft | 394 kts | 152° |
| 2026-04-21 13:50 | 52.30222 | -1.34005 | 20520 ft | 391 kts | 151° |
| 2026-04-21 13:50 | 52.27832 | -1.31929 | 20090 ft | 385 kts | 150° |
| 2026-04-21 13:50 | 52.25518 | -1.29799 | 19711 ft | 378 kts | 148° |
| 2026-04-21 13:51 | 52.23267 | -1.27653 | 19334 ft | 372 kts | 148° |
| 2026-04-21 13:51 | 52.21053 | -1.25521 | 18945 ft | 367 kts | 148° |
| 2026-04-21 13:51 | 52.18874 | -1.23423 | 18568 ft | 361 kts | 148° |
| 2026-04-21 13:51 | 52.16725 | -1.21370 | 18183 ft | 354 kts | 148° |
| 2026-04-21 13:52 | 52.14616 | -1.19376 | 17819 ft | 348 kts | 148° |
| 2026-04-21 13:52 | 52.12537 | -1.17423 | 17465 ft | 342 kts | 148° |
| 2026-04-21 13:52 | 52.11181 | -1.16155 | 17238 ft | 338 kts | 148° |
| 2026-04-21 13:52 | 52.09151 | -1.14261 | 16896 ft | 334 kts | 148° |
| 2026-04-21 13:53 | 52.07130 | -1.12381 | 16486 ft | 332 kts | 149° |
| 2026-04-21 13:53 | 52.05123 | -1.10540 | 15828 ft | 329 kts | 149° |
| 2026-04-21 13:53 | 52.03169 | -1.08654 | 15193 ft | 321 kts | 140° |
| 2026-04-21 13:53 | 52.01653 | -1.06092 | 14483 ft | 313 kts | 121° |
| 2026-04-21 13:54 | 52.00627 | -1.03020 | 13700 ft | 308 kts | 114° |
| 2026-04-21 13:54 | 51.99659 | -0.99921 | 12900 ft | 307 kts | 115° |
| 2026-04-21 13:54 | 51.98715 | -0.96888 | 12123 ft | 303 kts | 114° |
| 2026-04-21 13:54 | 51.97772 | -0.93851 | 11350 ft | 300 kts | 115° |
| 2026-04-21 13:55 | 51.96836 | -0.90856 | 10600 ft | 296 kts | 115° |
| 2026-04-21 13:55 | 51.95905 | -0.87891 | 9822 ft | 293 kts | 115° |
| 2026-04-21 13:55 | 51.94982 | -0.84965 | 9025 ft | 290 kts | 115° |
| 2026-04-21 13:55 | 51.94069 | -0.82072 | 8240 ft | 286 kts | 115° |
| 2026-04-21 13:56 | 51.93171 | -0.79220 | 7465 ft | 282 kts | 115° |
| 2026-04-21 13:56 | 51.92285 | -0.76407 | 6722 ft | 278 kts | 115° |
| 2026-04-21 13:56 | 51.91411 | -0.73641 | 5925 ft | 274 kts | 115° |
| 2026-04-21 13:56 | 51.90544 | -0.70906 | 5154 ft | 271 kts | 114° |
| 2026-04-21 13:57 | 51.89691 | -0.68211 | 4356 ft | 268 kts | 114° |
| 2026-04-21 13:57 | 51.88845 | -0.65544 | 3579 ft | 265 kts | 114° |
| 2026-04-21 13:57 | 51.88005 | -0.62906 | 2804 ft | 262 kts | 114° |
| 2026-04-21 13:57 | 51.87174 | -0.60307 | 2173 ft | 254 kts | 114° |
| 2026-04-21 13:58 | 51.86399 | -0.57898 | 2029 ft | 228 kts | 113° |
| 2026-04-21 13:58 | 51.85702 | -0.55737 | 2005 ft | 206 kts | 112° |
| 2026-04-21 13:58 | 51.85094 | -0.53760 | 2008 ft | 186 kts | 105° |
| 2026-04-21 13:58 | 51.84920 | -0.51771 | 2008 ft | 175 kts | 82° |
| 2026-04-21 13:59 | 51.85187 | -0.49977 | 1989 ft | 157 kts | 74° |
| 2026-04-21 13:59 | 51.85469 | -0.48349 | 1814 ft | 142 kts | 73° |
| 2026-04-21 13:59 | 51.85721 | -0.46893 | 1669 ft | 135 kts | 75° |
| 2026-04-21 13:59 | 51.85968 | -0.45472 | 1475 ft | 129 kts | 75° |
| 2026-04-21 14:00 | 51.86212 | -0.44076 | 1280 ft | 129 kts | 75° |
| 2026-04-21 14:00 | 51.86448 | -0.42709 | 1146 ft | 128 kts | 75° |
| 2026-04-21 14:00 | 51.86688 | -0.41339 | 965 ft | 126 kts | 76° |
| 2026-04-21 14:00 | 51.86927 | -0.39936 | 763 ft | 130 kts | 77° |
| 2026-04-21 14:01 | 51.87172 | -0.38540 | 591 ft | 127 kts | 77° |
| 2026-04-21 14:01 | 51.87398 | -0.37233 | 523 ft | 107 kts | 76° |
| 2026-04-21 14:01 | 51.87536 | -0.36420 | 522 ft | 54 kts | 74° |
| 2026-04-21 14:01 | 51.87616 | -0.35961 | 516 ft | 22 kts | 63° |
| 2026-04-21 14:02 | 51.87718 | -0.35941 | 516 ft | 16 kts | 344° |
| 2026-04-21 14:02 | 51.87784 | -0.36045 | 518 ft | 12 kts | 280° |
| 2026-04-21 14:02 | 51.87769 | -0.36162 | 518 ft | 10 kts | 256° |
| 2026-04-21 14:03 | 51.87732 | -0.36374 | 518 ft | 12 kts | 253° |
| 2026-04-21 14:03 | 51.87701 | -0.36558 | 520 ft | 21 kts | 256° |
| 2026-04-21 14:03 | 51.87666 | -0.36766 | 523 ft | 17 kts | 254° |
| 2026-04-21 14:03 | 51.87638 | -0.36929 | 526 ft | 14 kts | 254° |
| 2026-04-21 14:04 | 51.87609 | -0.37096 | 522 ft | 15 kts | 254° |
| 2026-04-21 14:04 | 51.87581 | -0.37256 | 522 ft | 14 kts | 254° |
| 2026-04-21 14:04 | 51.87597 | -0.37414 | 522 ft | 17 kts | 307° |
| 2026-04-21 14:04 | 51.87698 | -0.37565 | 520 ft | 24 kts | 299° |
| 2026-04-21 14:05 | 51.87773 | -0.37822 | 523 ft | 24 kts | 295° |
| 2026-04-21 14:05 | 51.87819 | -0.37945 | 523 ft | 5 kts | 341° |
| 2026-04-21 14:05 | 51.87849 | -0.37910 | 523 ft | 7 kts | 47° |
| 2026-04-21 14:05 | 51.87858 | -0.37894 | 523 ft | 0 kts | 46° |